createdAt,value
2019-03-12T00:00:42.889Z,22.37
2019-03-12T00:03:15.805Z,30.60
2019-03-12T00:05:48.639Z,24.23
2019-03-12T00:08:21.563Z,26.90
2019-03-12T00:10:54.429Z,28.47
2019-03-12T00:13:27.515Z,22.70
2019-03-12T00:16:01.447Z,25.73
2019-03-12T00:18:34.264Z,25.53
2019-03-12T00:21:07.082Z,24.50
2019-03-12T00:23:39.929Z,24.70
2019-03-12T00:26:12.680Z,27.20
2019-03-12T00:28:45.560Z,26.33
2019-03-12T00:31:20.104Z,23.23
2019-03-12T00:33:52.866Z,25.30
2019-03-12T00:36:25.742Z,24.50
2019-03-12T00:38:58.627Z,23.40
2019-03-12T00:41:31.846Z,24.27
2019-03-12T00:44:04.676Z,23.60
2019-03-12T00:46:37.867Z,23.77
2019-03-12T00:49:10.604Z,26.70
2019-03-12T00:51:43.326Z,26.07
2019-03-12T00:54:16.222Z,29.50
2019-03-12T00:56:49.006Z,27.47
2019-03-12T00:59:21.733Z,30.30
2019-03-12T01:01:55.602Z,30.57
2019-03-12T01:04:28.370Z,27.93
2019-03-12T01:07:01.102Z,28.40
2019-03-12T01:09:33.823Z,28.17
2019-03-12T01:12:06.582Z,31.23
2019-03-12T01:14:39.387Z,33.13
2019-03-12T01:17:12.278Z,30.73
2019-03-12T01:19:45.104Z,32.63
2019-03-12T01:22:17.889Z,30.67
2019-03-12T01:24:50.708Z,29.20
2019-03-12T01:27:23.584Z,25.70
2019-03-12T01:29:56.283Z,30.33
2019-03-12T01:32:29.097Z,25.17
2019-03-12T01:35:01.870Z,24.40
2019-03-12T01:37:34.768Z,27.23
2019-03-12T01:40:08.744Z,22.47
2019-03-12T01:42:41.530Z,19.33
2019-03-12T01:45:15.854Z,20.43
2019-03-12T01:47:48.546Z,21.93
2019-03-12T01:50:21.379Z,19.73
2019-03-12T01:52:55.647Z,23.20
2019-03-12T01:55:28.393Z,22.50
2019-03-12T01:58:01.362Z,21.77
2019-03-12T02:00:34.528Z,20.80
2019-03-12T02:03:07.500Z,19.27
2019-03-12T02:05:40.492Z,21.63
2019-03-12T02:08:14.389Z,21.03
2019-03-12T02:10:47.224Z,19.40
2019-03-12T02:13:20.074Z,18.37
2019-03-12T02:15:52.795Z,21.37
2019-03-12T02:18:25.562Z,21.33
2019-03-12T02:20:58.406Z,20.63
2019-03-12T02:23:31.123Z,20.30
2019-03-12T02:26:03.879Z,20.37
2019-03-12T02:28:36.686Z,21.20
2019-03-12T02:31:09.501Z,25.77
2019-03-12T02:33:42.292Z,19.20
2019-03-12T02:36:15.086Z,23.67
2019-03-12T02:38:48.008Z,21.30
2019-03-12T02:41:20.767Z,20.97
2019-03-12T02:43:53.536Z,20.03
2019-03-12T02:46:26.431Z,21.03
2019-03-12T02:48:59.300Z,20.97
2019-03-12T02:51:32.044Z,18.70
2019-03-12T02:54:04.789Z,18.23
2019-03-12T02:56:37.533Z,21.10
2019-03-12T02:59:11.711Z,20.10
2019-03-12T03:01:44.580Z,21.47
2019-03-12T03:04:17.352Z,21.93
2019-03-12T03:07:03.776Z,20.43
2019-03-12T03:09:36.570Z,23.33
2019-03-12T03:12:09.301Z,20.27
2019-03-12T03:14:42.489Z,23.40
2019-03-12T03:17:16.553Z,21.40
2019-03-12T03:19:49.328Z,16.37
2019-03-12T03:22:22.372Z,23.13
2019-03-12T03:24:55.188Z,22.40
2019-03-12T03:27:29.717Z,21.60
2019-03-12T03:30:02.762Z,22.40
2019-03-12T03:32:36.662Z,21.40
2019-03-12T03:35:09.663Z,21.27
2019-03-12T03:37:42.409Z,22.67
2019-03-12T03:40:18.808Z,23.70
2019-03-12T03:42:51.730Z,20.83
2019-03-12T03:45:24.461Z,19.27
2019-03-12T03:47:57.160Z,16.87
2019-03-12T03:50:29.881Z,23.80
2019-03-12T03:53:02.686Z,27.93
2019-03-12T03:55:35.724Z,25.83
2019-03-12T03:58:08.575Z,21.63
2019-03-12T04:00:41.285Z,20.80
2019-03-12T04:03:14.020Z,25.77
2019-03-12T04:05:46.874Z,21.03
2019-03-12T04:08:19.695Z,24.73
2019-03-12T04:10:52.527Z,19.47
2019-03-12T04:13:25.399Z,23.37
2019-03-12T04:15:58.202Z,17.80
2019-03-12T04:18:30.997Z,25.70
2019-03-12T04:21:03.743Z,21.97
2019-03-12T04:23:36.585Z,23.80
2019-03-12T04:26:09.415Z,19.93
2019-03-12T04:28:42.292Z,31.03
2019-03-12T04:31:15.085Z,24.03
2019-03-12T04:34:17.693Z,29.20
2019-03-12T04:36:52.052Z,21.57
2019-03-12T04:39:24.753Z,20.27
2019-03-12T04:41:57.625Z,21.33
2019-03-12T04:44:30.406Z,22.77
2019-03-12T04:47:03.214Z,18.97
2019-03-12T04:49:36.095Z,18.87
2019-03-12T04:52:08.907Z,22.47
2019-03-12T04:54:41.662Z,20.00
2019-03-12T04:57:14.597Z,22.93
2019-03-12T04:59:47.399Z,20.57
2019-03-12T05:02:20.202Z,24.07
2019-03-12T05:04:52.962Z,31.07
2019-03-12T05:07:25.794Z,20.13
2019-03-12T05:09:58.585Z,18.27
2019-03-12T05:12:31.282Z,19.40
2019-03-12T05:15:04.078Z,21.17
2019-03-12T05:17:38.490Z,23.60
2019-03-12T05:20:13.643Z,21.13
2019-03-12T05:22:46.693Z,18.97
2019-03-12T05:25:19.398Z,20.43
2019-03-12T05:27:52.110Z,23.30
2019-03-12T05:30:24.890Z,23.03
2019-03-12T05:32:57.665Z,30.13
2019-03-12T05:35:30.473Z,30.63
2019-03-12T05:38:03.199Z,26.60
2019-03-12T05:40:35.984Z,25.47
2019-03-12T05:43:09.828Z,27.43
2019-03-12T05:45:42.593Z,24.20
2019-03-12T05:48:15.403Z,24.63
2019-03-12T05:50:48.141Z,24.10
2019-03-12T05:53:20.944Z,23.43
2019-03-12T05:55:53.676Z,23.60
2019-03-12T05:58:26.542Z,22.63
2019-03-12T06:00:59.555Z,22.23
2019-03-12T06:03:32.654Z,21.60
2019-03-12T06:06:05.592Z,23.73
2019-03-12T06:08:38.374Z,21.07
2019-03-12T06:11:11.090Z,24.30
2019-03-12T06:13:43.870Z,20.40
2019-03-12T06:16:16.765Z,20.10
2019-03-12T06:18:49.489Z,21.37
2019-03-12T06:21:22.490Z,21.33
2019-03-12T06:23:56.467Z,27.83
2019-03-12T06:26:29.224Z,21.80
2019-03-12T06:29:01.946Z,20.40
2019-03-12T06:31:56.991Z,18.30
2019-03-12T06:34:43.353Z,19.97
2019-03-12T06:37:47.336Z,23.30
2019-03-12T06:40:44.694Z,17.83
2019-03-12T06:43:24.863Z,22.77
2019-03-12T06:46:15.310Z,18.20
2019-03-12T06:49:12.709Z,19.73
2019-03-12T06:52:05.637Z,19.60
2019-03-12T06:54:57.356Z,19.13
2019-03-12T06:57:42.382Z,18.00
2019-03-12T07:00:40.834Z,17.50
2019-03-12T07:03:25.181Z,17.07
2019-03-12T07:06:32.193Z,18.83
2019-03-12T07:09:27.339Z,17.80
2019-03-12T07:12:19.362Z,17.83
2019-03-12T07:15:13.866Z,22.40
2019-03-12T07:18:20.887Z,20.47
2019-03-12T07:21:04.531Z,15.73
2019-03-12T07:24:13.148Z,21.37
2019-03-12T07:27:11.099Z,21.83
2019-03-12T07:30:08.737Z,15.47
2019-03-12T07:32:57.029Z,17.13
2019-03-12T07:35:51.680Z,16.43
2019-03-12T07:38:36.268Z,20.00
2019-03-12T07:41:31.962Z,15.67
2019-03-12T07:44:26.902Z,14.17
2019-03-12T07:47:11.213Z,18.77
2019-03-12T07:50:01.192Z,23.37
2019-03-12T07:52:45.972Z,18.70
2019-03-12T07:55:46.475Z,19.30
2019-03-12T07:58:46.954Z,21.17
2019-03-12T08:01:36.166Z,17.00
2019-03-12T08:04:33.935Z,18.97
2019-03-12T08:07:31.203Z,21.83
2019-03-12T08:10:28.807Z,22.70
2019-03-12T08:13:20.492Z,22.73
2019-03-12T08:16:07.891Z,21.50
2019-03-12T08:18:52.901Z,21.80
2019-03-12T08:21:49.914Z,20.27
2019-03-12T08:24:44.425Z,26.77
2019-03-12T08:27:34.623Z,23.57
2019-03-12T08:30:34.271Z,22.80
2019-03-12T08:33:24.743Z,23.87
2019-03-12T08:36:19.537Z,25.73
2019-03-12T08:39:00.202Z,25.33
2019-03-12T08:41:50.583Z,27.50
2019-03-12T08:44:51.513Z,25.27
2019-03-12T08:47:48.849Z,25.63
2019-03-12T08:50:43.550Z,23.97
2019-03-12T08:53:22.493Z,23.00
2019-03-12T08:56:22.497Z,24.00
2019-03-12T08:59:17.058Z,27.70
2019-03-12T09:02:24.814Z,26.00
2019-03-12T09:05:06.648Z,28.97
2019-03-12T09:07:49.232Z,32.50
2019-03-12T09:10:36.966Z,27.53
2019-03-12T09:13:48.258Z,24.37
2019-03-12T09:16:39.832Z,25.60
2019-03-12T09:19:23.572Z,25.30
2019-03-12T09:22:33.628Z,29.63
2019-03-12T09:25:25.420Z,28.10
2019-03-12T09:28:30.322Z,29.40
2019-03-12T09:31:24.767Z,33.30
2019-03-12T09:34:28.621Z,30.67
2019-03-12T09:37:38.408Z,34.93
2019-03-12T09:40:29.707Z,33.73
2019-03-12T09:43:20.158Z,32.03
2019-03-12T09:46:10.590Z,32.13
2019-03-12T09:49:00.944Z,30.47
2019-03-12T09:51:55.563Z,30.47
2019-03-12T09:54:50.205Z,28.60
2019-03-12T09:57:47.678Z,31.67
2019-03-12T10:00:39.245Z,29.30
2019-03-12T10:03:29.142Z,28.27
2019-03-12T10:06:12.706Z,31.53
2019-03-12T10:08:57.561Z,27.80
2019-03-12T10:11:52.043Z,30.03
2019-03-12T10:15:02.108Z,27.17
2019-03-12T10:18:02.884Z,23.40
2019-03-12T10:20:58.496Z,22.87
2019-03-12T10:23:59.091Z,24.33
2019-03-12T10:26:56.694Z,23.73
2019-03-12T10:29:45.051Z,21.60
2019-03-12T10:32:28.575Z,18.83
2019-03-12T10:35:09.103Z,19.57
2019-03-12T10:38:06.716Z,17.03
2019-03-12T10:41:08.509Z,21.00
2019-03-12T10:43:48.005Z,18.23
2019-03-12T10:46:54.993Z,20.10
2019-03-12T10:49:37.447Z,24.67
2019-03-12T10:52:03.183Z,22.17
2019-03-12T10:54:36.032Z,17.33
2019-03-12T10:57:08.863Z,16.93
2019-03-12T10:59:41.832Z,17.23
2019-03-12T11:02:14.603Z,14.13
2019-03-12T11:04:47.478Z,15.50
2019-03-12T11:07:20.252Z,18.30
2019-03-12T11:09:53.193Z,16.73
2019-03-12T11:12:26.472Z,21.73
2019-03-12T11:14:59.382Z,15.43
2019-03-12T11:17:32.235Z,19.63
2019-03-12T11:20:05.663Z,18.90
2019-03-12T11:22:38.659Z,14.10
2019-03-12T11:25:11.583Z,19.32
2019-03-12T11:27:44.519Z,19.73
2019-03-12T11:30:17.978Z,17.60
2019-03-12T11:32:50.731Z,16.87
2019-03-12T11:35:23.507Z,15.70
2019-03-12T11:37:59.174Z,18.27
2019-03-12T11:40:32.990Z,14.85
2019-03-12T11:43:06.314Z,19.73
2019-03-12T11:45:39.437Z,14.98
2019-03-12T11:48:13.565Z,11.48
2019-03-12T11:50:46.770Z,13.93
2019-03-12T11:53:19.743Z,13.03
2019-03-12T11:55:52.530Z,13.15
2019-03-12T11:58:25.406Z,11.10
2019-03-12T12:01:03.706Z,12.53
2019-03-12T12:03:37.010Z,11.43
2019-03-12T12:06:12.888Z,9.85
2019-03-12T12:08:45.659Z,8.83
2019-03-12T12:11:19.572Z,16.35
2019-03-12T12:13:52.359Z,9.75
2019-03-12T12:16:25.170Z,10.15
2019-03-12T12:18:58.069Z,9.25
2019-03-12T12:21:30.936Z,10.68
2019-03-12T12:24:03.779Z,17.92
2019-03-12T12:26:36.591Z,15.60
2019-03-12T12:29:09.319Z,13.28
2019-03-12T12:31:42.208Z,17.95
2019-03-12T12:34:17.348Z,11.63
2019-03-12T12:36:50.100Z,11.75
2019-03-12T12:39:23.944Z,12.78
2019-03-12T12:41:56.889Z,9.75
2019-03-12T12:44:30.734Z,11.00
2019-03-12T12:47:03.552Z,12.40
2019-03-12T12:49:36.365Z,11.60
2019-03-12T12:52:09.234Z,9.73
2019-03-12T12:54:42.117Z,8.20
2019-03-12T12:57:14.947Z,12.97
2019-03-12T12:59:47.782Z,9.50
2019-03-12T13:02:20.621Z,11.53
2019-03-12T13:04:53.317Z,9.53
2019-03-12T13:07:26.277Z,12.77
2019-03-12T13:09:59.089Z,8.83
2019-03-12T13:12:31.967Z,8.60
2019-03-12T13:15:05.148Z,9.40
2019-03-12T13:17:38.100Z,10.07
2019-03-12T13:20:12.155Z,8.90
2019-03-12T13:23:10.851Z,13.25
2019-03-12T13:25:43.633Z,10.98
2019-03-12T13:28:20.049Z,9.20
2019-03-12T13:30:52.846Z,10.05
2019-03-12T13:33:25.846Z,9.68
2019-03-12T13:35:58.706Z,12.58
2019-03-12T13:38:44.821Z,8.78
2019-03-12T13:41:06.217Z,14.23
2019-03-12T13:43:39.105Z,11.55
2019-03-12T13:46:12.006Z,10.30
2019-03-12T13:48:44.848Z,9.28
2019-03-12T13:51:17.719Z,9.43
2019-03-12T13:53:52.588Z,9.85
2019-03-12T13:56:25.392Z,10.75
2019-03-12T13:58:58.218Z,8.65
2019-03-12T14:01:31.191Z,9.85
2019-03-12T14:04:10.417Z,8.48
2019-03-12T14:06:38.656Z,8.40
2019-03-12T14:09:11.393Z,9.87
2019-03-12T14:11:46.026Z,14.58
2019-03-12T14:14:18.817Z,11.38
2019-03-12T14:16:51.945Z,11.15
2019-03-12T14:19:24.957Z,12.18
2019-03-12T14:21:58.060Z,7.60
2019-03-12T14:24:30.849Z,9.80
2019-03-12T14:27:03.367Z,8.68
2019-03-12T14:29:36.200Z,7.87
2019-03-12T14:32:11.908Z,11.03
2019-03-12T14:34:43.663Z,8.78
2019-03-12T14:37:16.556Z,7.30
2019-03-12T14:39:49.345Z,9.18
2019-03-12T14:42:22.233Z,10.13
2019-03-12T14:44:54.974Z,8.75
2019-03-12T14:47:27.790Z,10.25
2019-03-12T14:50:00.668Z,12.10
2019-03-12T14:52:39.657Z,12.70
2019-03-12T14:55:12.629Z,13.15
2019-03-12T14:57:45.552Z,13.93
2019-03-12T15:00:25.422Z,11.97
2019-03-12T15:02:57.897Z,14.85
2019-03-12T15:05:30.841Z,14.18
2019-03-12T15:08:04.951Z,12.60
2019-03-12T15:10:37.798Z,14.00
2019-03-12T15:13:10.855Z,12.30
2019-03-12T15:15:43.734Z,11.20
2019-03-12T15:18:16.922Z,12.68
2019-03-12T15:20:50.091Z,11.80
2019-03-12T15:23:23.072Z,12.43
2019-03-12T15:25:55.990Z,15.88
2019-03-12T15:28:28.965Z,15.93
2019-03-12T15:31:02.465Z,18.37
2019-03-12T15:33:35.991Z,18.02
2019-03-12T15:36:08.818Z,18.62
2019-03-12T15:38:41.581Z,21.80
2019-03-12T15:41:14.490Z,16.52
2019-03-12T15:43:47.299Z,24.05
2019-03-12T15:46:20.788Z,17.45
2019-03-12T15:48:54.725Z,14.80
2019-03-12T15:51:27.591Z,17.33
2019-03-12T15:54:00.322Z,20.10
2019-03-12T15:56:33.208Z,18.85
2019-03-12T15:59:05.996Z,15.60
2019-03-12T16:01:39.049Z,17.45
2019-03-12T16:04:11.996Z,15.70
2019-03-12T16:06:45.947Z,13.53
2019-03-12T16:09:19.192Z,15.78
2019-03-12T16:11:52.224Z,14.87
2019-03-12T16:14:25.031Z,14.57
2019-03-12T16:16:58.035Z,12.33
2019-03-12T16:19:30.773Z,12.35
2019-03-12T16:22:03.702Z,12.63
2019-03-12T16:24:36.467Z,11.97
2019-03-12T16:27:09.313Z,14.55
2019-03-12T16:29:42.286Z,10.90
2019-03-12T16:32:15.185Z,15.23
2019-03-12T16:34:48.082Z,20.27
2019-03-12T16:37:27.896Z,20.75
2019-03-12T16:40:00.783Z,23.77
2019-03-12T16:42:35.277Z,28.45
2019-03-12T16:45:09.554Z,29.32
2019-03-12T16:47:42.435Z,32.67
2019-03-12T16:50:16.287Z,53.30
2019-03-12T16:52:49.077Z,77.87
2019-03-12T16:55:22.009Z,90.22
2019-03-12T16:57:54.785Z,129.38
2019-03-12T17:00:27.942Z,124.37
2019-03-12T17:03:00.826Z,117.72
2019-03-12T17:05:33.853Z,108.92
2019-03-12T17:08:06.825Z,111.43
2019-03-12T17:10:39.672Z,101.05
2019-03-12T17:13:14.029Z,93.35
2019-03-12T17:15:47.030Z,87.27
2019-03-12T17:18:19.991Z,97.27
2019-03-12T17:20:52.831Z,81.60
2019-03-12T17:23:26.501Z,57.60
2019-03-12T17:25:59.875Z,30.85
2019-03-12T17:28:32.702Z,29.87
2019-03-12T17:31:05.660Z,24.30
2019-03-12T17:33:38.421Z,29.20
2019-03-12T17:36:11.372Z,23.52
2019-03-12T17:38:46.934Z,25.23
2019-03-12T17:41:18.779Z,26.57
2019-03-12T17:43:51.647Z,29.53
2019-03-12T17:46:24.885Z,26.33
2019-03-12T17:48:57.643Z,22.90
2019-03-12T17:51:30.643Z,29.67
2019-03-12T17:54:03.774Z,28.33
2019-03-12T17:56:36.764Z,23.97
2019-03-12T17:59:09.634Z,26.47
2019-03-12T18:01:42.680Z,35.00
2019-03-12T18:04:15.553Z,44.63
2019-03-12T18:06:48.327Z,49.70
2019-03-12T18:09:21.080Z,52.97
2019-03-12T18:11:54.034Z,42.30
2019-03-12T18:14:26.903Z,33.47
2019-03-12T18:16:59.795Z,35.53
2019-03-12T18:19:32.499Z,27.20
2019-03-12T18:22:05.323Z,33.27
2019-03-12T18:24:38.132Z,42.90
2019-03-12T18:27:10.968Z,49.97
2019-03-12T18:29:43.798Z,49.10
2019-03-12T18:32:16.624Z,50.27
2019-03-12T18:34:49.439Z,60.33
2019-03-12T18:37:22.279Z,78.17
2019-03-12T18:39:55.217Z,65.70
2019-03-12T18:42:28.196Z,54.77
2019-03-12T18:45:01.127Z,82.70
2019-03-12T18:47:34.159Z,75.13
2019-03-12T18:50:08.460Z,69.10
2019-03-12T18:52:42.525Z,63.20
2019-03-12T18:55:45.856Z,56.37
2019-03-12T18:58:18.610Z,40.03
2019-03-12T19:00:51.575Z,31.30
2019-03-12T19:03:24.513Z,31.77
2019-03-12T19:05:58.552Z,34.73
2019-03-12T19:08:31.429Z,38.03
2019-03-12T19:11:06.475Z,54.37
2019-03-12T19:13:41.497Z,55.57
2019-03-12T19:16:14.453Z,52.47
2019-03-12T19:18:47.467Z,47.73
2019-03-12T19:21:20.462Z,40.37
2019-03-12T19:23:53.261Z,35.90
2019-03-12T19:26:26.305Z,40.97
2019-03-12T19:28:59.039Z,39.97
2019-03-12T19:31:33.759Z,46.30
2019-03-12T19:34:11.044Z,52.23
2019-03-12T19:36:44.080Z,39.73
2019-03-12T19:39:18.402Z,38.93
2019-03-12T19:41:51.350Z,42.53
2019-03-12T19:44:25.260Z,51.87
2019-03-12T19:46:58.280Z,49.63
2019-03-12T19:49:31.083Z,47.37
2019-03-12T19:52:03.914Z,36.10
2019-03-12T19:54:36.912Z,30.07
2019-03-12T19:57:09.941Z,30.23
2019-03-12T19:59:42.762Z,33.20
2019-03-12T20:02:17.529Z,35.07
2019-03-12T20:04:50.467Z,43.37
2019-03-12T20:07:23.423Z,38.00
2019-03-12T20:10:51.442Z,34.23
2019-03-12T20:14:41.090Z,29.73
2019-03-12T20:18:16.208Z,32.50
2019-03-12T20:22:10.217Z,42.03
2019-03-12T20:25:30.205Z,31.63
2019-03-12T20:29:27.429Z,34.23
2019-03-12T20:33:00.081Z,42.10
2019-03-12T20:36:39.772Z,39.13
2019-03-12T20:40:36.867Z,28.63
2019-03-12T20:44:31.912Z,26.00
2019-03-12T20:48:09.753Z,26.63
2019-03-12T20:51:59.315Z,22.67
2019-03-12T20:55:41.222Z,29.00
2019-03-12T20:59:16.440Z,23.43
2019-03-12T21:03:03.208Z,28.30
2019-03-12T21:06:29.624Z,26.17
2019-03-12T21:10:01.094Z,28.97
2019-03-12T21:13:34.620Z,29.60
2019-03-12T21:16:43.614Z,25.80
2019-03-12T21:20:21.522Z,25.43
2019-03-12T21:23:48.318Z,26.43
2019-03-12T21:27:11.093Z,27.70
2019-03-12T21:29:45.522Z,25.77
2019-03-12T21:32:19.547Z,27.20
2019-03-12T21:34:52.454Z,24.50
2019-03-12T21:37:25.304Z,25.57
2019-03-12T21:39:58.166Z,26.77
2019-03-12T21:42:31.163Z,24.73
2019-03-12T21:45:04.597Z,26.43
2019-03-12T21:47:37.758Z,24.37
2019-03-12T21:50:10.804Z,22.93
2019-03-12T21:52:43.582Z,29.00
2019-03-12T21:55:16.345Z,27.87
2019-03-12T21:57:49.184Z,24.87
2019-03-12T22:00:22.253Z,27.53
2019-03-12T22:02:55.216Z,25.70
2019-03-12T22:05:28.040Z,28.83
2019-03-12T22:08:00.888Z,23.13
2019-03-12T22:10:33.749Z,30.40
2019-03-12T22:13:06.827Z,28.70
2019-03-12T22:15:39.759Z,25.70
2019-03-12T22:18:12.662Z,22.43
2019-03-12T22:20:45.511Z,24.67
2019-03-12T22:23:27.826Z,20.93
2019-03-12T22:26:00.690Z,24.53
2019-03-12T22:28:33.475Z,19.90
2019-03-12T22:31:06.447Z,21.03
2019-03-12T22:33:39.167Z,24.00
2019-03-12T22:36:11.993Z,21.23
2019-03-12T22:38:44.903Z,23.33
2019-03-12T22:41:17.642Z,27.97
2019-03-12T22:43:50.486Z,23.30
2019-03-12T22:46:23.484Z,21.20
2019-03-12T22:48:56.388Z,18.23
2019-03-12T22:51:29.264Z,18.63
2019-03-12T22:54:02.622Z,22.10
2019-03-12T22:56:35.720Z,19.57
2019-03-12T22:59:10.031Z,21.13
2019-03-12T23:02:00.502Z,18.53
2019-03-12T23:04:50.951Z,23.07
2019-03-12T23:07:41.644Z,22.70
2019-03-12T23:10:17.401Z,21.53
2019-03-12T23:12:51.888Z,20.87
2019-03-12T23:15:25.219Z,21.63
2019-03-12T23:17:58.900Z,21.60
2019-03-12T23:20:32.689Z,19.30
2019-03-12T23:23:07.138Z,19.10
2019-03-12T23:25:40.120Z,20.50
2019-03-12T23:28:13.400Z,21.33
2019-03-12T23:30:46.549Z,23.63
2019-03-12T23:33:19.379Z,22.73
2019-03-12T23:35:52.215Z,25.57
2019-03-12T23:38:25.069Z,23.00
2019-03-12T23:40:59.096Z,19.00
2019-03-12T23:43:31.923Z,18.87
2019-03-12T23:46:04.836Z,18.50
2019-03-12T23:48:37.861Z,21.37
2019-03-12T23:51:10.829Z,20.10
2019-03-12T23:53:43.726Z,21.10
2019-03-12T23:56:16.705Z,19.60
2019-03-12T23:58:49.601Z,23.20
